Time;durP1;ratioP1;P1;durP2;ratioP2;P2;SDS_P1;SDS_P2;PMS_P1;PMS_P2;Temp;Humidity;BMP_temperature;BMP_pressure;BME280_temperature;BME280_humidity;BME280_pressure;Samples;Min_cycle;Max_cycle;Signal;HPM_P1;HPM_P2
2021/07/25 00:00:34;;;;;;;13.87;10.43;;;24.90;99.60;;;;;;4919234;29;20533;-69
2021/07/25 00:03:00;;;;;;;11.67;10.47;;;24.90;99.70;;;;;;4918916;29;20500;-70
2021/07/25 00:05:27;;;;;;;11.10;9.33;;;24.90;99.70;;;;;;4919060;29;20461;-70
2021/07/25 00:07:55;;;;;;;11.50;10.30;;;24.90;99.80;;;;;;4919661;29;20465;-69
2021/07/25 00:10:22;;;;;;;10.87;9.87;;;24.90;99.90;;;;;;4919389;29;20469;-70
2021/07/25 00:12:49;;;;;;;13.27;10.20;;;24.80;99.90;;;;;;4918787;29;20500;-69
2021/07/25 00:15:16;;;;;;;11.27;10.07;;;24.80;99.90;;;;;;4919008;29;20472;-70
2021/07/25 00:17:42;;;;;;;11.03;9.87;;;24.80;99.90;;;;;;4918629;29;20476;-69
2021/07/25 00:20:10;;;;;;;10.30;9.40;;;24.70;99.90;;;;;;4918823;29;20477;-69
2021/07/25 00:22:37;;;;;;;12.43;9.80;;;24.70;99.90;;;;;;4918925;29;20492;-69
2021/07/25 00:25:09;;;;;;;10.70;9.70;;;24.60;99.90;;;;;;4918744;29;20462;-69
2021/07/25 00:27:39;;;;;;;11.30;10.20;;;24.60;99.90;;;;;;4918854;29;20883;-70
2021/07/25 00:30:07;;;;;;;12.13;10.93;;;24.50;99.90;;;;;;4919188;29;20457;-70
2021/07/25 00:32:34;;;;;;;11.03;9.93;;;24.40;99.90;;;;;;4918677;29;20457;-69
2021/07/25 00:35:01;;;;;;;12.03;10.80;;;24.40;99.90;;;;;;4918540;29;20528;-69
2021/07/25 00:37:28;;;;;;;12.00;10.70;;;24.30;99.90;;;;;;4918958;29;20488;-69
2021/07/25 00:39:54;;;;;;;10.83;9.73;;;24.30;99.90;;;;;;4918988;29;20764;-69
2021/07/25 00:42:23;;;;;;;11.87;10.67;;;24.30;99.90;;;;;;4919196;29;20465;-70
2021/07/25 00:44:49;;;;;;;13.87;10.40;;;24.20;99.90;;;;;;4919859;29;20477;-69
2021/07/25 00:47:17;;;;;;;11.80;10.60;;;24.20;99.90;;;;;;4919471;29;20465;-69
2021/07/25 00:49:43;;;;;;;13.43;11.30;;;24.10;99.90;;;;;;4919630;29;20525;-70
2021/07/25 00:52:12;;;;;;;11.50;10.30;;;24.10;99.90;;;;;;4919357;29;20461;-69
2021/07/25 00:54:39;;;;;;;11.60;9.80;;;24.10;99.90;;;;;;4920340;29;20532;-71
2021/07/25 00:57:06;;;;;;;12.90;9.90;;;24.00;99.90;;;;;;4922562;29;20473;-70
2021/07/25 00:59:34;;;;;;;12.33;11.03;;;23.90;99.90;;;;;;4922609;29;20790;-70
2021/07/25 01:02:01;;;;;;;12.63;11.10;;;23.90;99.90;;;;;;4922764;29;20465;-70
2021/07/25 01:04:40;;;;;;;13.23;10.83;;;23.80;99.90;;;;;;4922757;29;20489;-70
2021/07/25 01:07:23;;;;;;;12.07;10.87;;;23.80;99.90;;;;;;4922693;29;20513;-69
2021/07/25 01:09:57;;;;;;;12.47;10.47;;;23.80;99.90;;;;;;4922817;29;20452;-69
2021/07/25 01:12:29;;;;;;;12.13;10.03;;;23.70;99.90;;;;;;4922698;29;20486;-69
2021/07/25 01:15:00;;;;;;;12.17;10.97;;;23.70;99.90;;;;;;4922684;29;20453;-70
2021/07/25 01:17:28;;;;;;;11.20;10.10;;;23.60;99.90;;;;;;4922631;29;20445;-70
2021/07/25 01:19:57;;;;;;;12.77;10.40;;;23.60;99.90;;;;;;4922546;29;20528;-70
2021/07/25 01:22:24;;;;;;;12.40;10.90;;;23.60;99.90;;;;;;4922783;29;20472;-70
2021/07/25 01:24:51;;;;;;;15.23;10.80;;;23.50;99.90;;;;;;4923311;29;20497;-69
2021/07/25 01:27:24;;;;;;;13.20;11.20;;;23.50;99.90;;;;;;4922480;29;20465;-69
2021/07/25 01:29:56;;;;;;;11.83;10.10;;;23.50;99.90;;;;;;4921925;29;20442;-69
2021/07/25 01:32:26;;;;;;;12.30;10.80;;;23.50;99.90;;;;;;4922108;29;20458;-70
2021/07/25 01:34:55;;;;;;;12.00;9.73;;;23.40;99.90;;;;;;4922159;29;20461;-69
2021/07/25 01:37:25;;;;;;;12.17;10.97;;;23.40;99.90;;;;;;4922797;29;20460;-69
2021/07/25 01:39:52;;;;;;;12.80;11.40;;;23.40;99.90;;;;;;4922892;29;20454;-69
2021/07/25 01:42:30;;;;;;;11.00;9.77;;;23.30;99.90;;;;;;4922401;29;20466;-69
2021/07/25 01:44:58;;;;;;;12.60;11.30;;;23.30;99.90;;;;;;4921848;29;20470;-69
2021/07/25 01:47:24;;;;;;;11.23;10.10;;;23.30;99.90;;;;;;4922112;29;20465;-69
2021/07/25 01:49:51;;;;;;;13.20;11.53;;;23.30;99.90;;;;;;4921939;29;20465;-69
2021/07/25 01:52:18;;;;;;;12.40;11.10;;;23.20;99.90;;;;;;4923536;29;20472;-70
2021/07/25 01:54:46;;;;;;;11.97;10.77;;;23.20;99.90;;;;;;4922489;29;20542;-69
2021/07/25 01:57:13;;;;;;;11.70;10.60;;;23.20;99.90;;;;;;4921626;29;20461;-70
2021/07/25 01:59:39;;;;;;;12.10;10.77;;;23.20;99.90;;;;;;4922054;29;20461;-69
2021/07/25 02:02:08;;;;;;;11.60;10.20;;;23.10;99.90;;;;;;4922395;29;20465;-69
2021/07/25 02:04:37;;;;;;;13.90;10.60;;;23.10;99.90;;;;;;4921401;29;20826;-69
2021/07/25 02:07:05;;;;;;;12.87;10.43;;;23.10;99.90;;;;;;4920076;29;20479;-69
2021/07/25 02:09:34;;;;;;;12.17;10.53;;;23.00;99.90;;;;;;4921057;29;20461;-70
2021/07/25 02:12:03;;;;;;;11.43;10.23;;;23.00;99.90;;;;;;4920798;29;20576;-70
2021/07/25 02:14:30;;;;;;;12.43;11.20;;;23.00;99.90;;;;;;4921077;29;20790;-70
2021/07/25 02:16:57;;;;;;;13.10;10.83;;;23.00;99.90;;;;;;4920824;29;20934;-69
2021/07/25 02:19:24;;;;;;;11.50;10.40;;;22.90;99.90;;;;;;4920695;29;20524;-69
2021/07/25 02:21:50;;;;;;;14.87;11.30;;;22.90;99.90;;;;;;4920499;29;20464;-69
2021/07/25 02:24:19;;;;;;;12.60;11.20;;;22.90;99.90;;;;;;4920842;29;20485;-69
2021/07/25 02:26:46;;;;;;;13.30;10.60;;;22.90;99.90;;;;;;4920442;29;20789;-70
2021/07/25 02:29:15;;;;;;;13.30;11.17;;;22.90;99.90;;;;;;4920124;29;20476;-69
2021/07/25 02:31:41;;;;;;;10.87;9.87;;;22.90;99.90;;;;;;4920694;29;20469;-69
2021/07/25 02:34:08;;;;;;;11.50;10.30;;;22.90;99.90;;;;;;4920373;29;20472;-69
2021/07/25 02:36:35;;;;;;;12.33;11.03;;;22.80;99.90;;;;;;4920344;29;20778;-70
2021/07/25 02:39:02;;;;;;;11.70;10.60;;;22.80;99.90;;;;;;4920389;29;20472;-70
2021/07/25 02:41:28;;;;;;;13.60;11.13;;;22.80;99.90;;;;;;4920413;29;20461;-70
2021/07/25 02:43:55;;;;;;;12.13;10.77;;;22.80;99.90;;;;;;4920148;29;20966;-68
2021/07/25 02:46:23;;;;;;;12.17;10.97;;;22.70;99.90;;;;;;4919991;29;20469;-71
2021/07/25 02:48:50;;;;;;;12.87;11.57;;;22.70;99.90;;;;;;4920271;29;20476;-69
2021/07/25 02:51:17;;;;;;;14.60;11.33;;;22.70;99.90;;;;;;4920159;29;20552;-71
2021/07/25 02:53:44;;;;;;;14.10;12.60;;;22.70;99.90;;;;;;4920130;29;20799;-70
2021/07/25 02:56:10;;;;;;;10.97;9.87;;;22.70;99.90;;;;;;4920166;29;20472;-70
2021/07/25 02:58:37;;;;;;;14.40;11.67;;;22.60;99.90;;;;;;4919976;29;20791;-70
2021/07/25 03:01:10;;;;;;;12.17;10.97;;;22.60;99.90;;;;;;4920107;29;20461;-70
2021/07/25 03:03:38;;;;;;;13.63;12.23;;;22.60;99.90;;;;;;4920127;29;20721;-70
2021/07/25 03:06:05;;;;;;;14.47;11.57;;;22.60;99.90;;;;;;4920114;29;20461;-70
2021/07/25 03:08:32;;;;;;;12.47;10.80;;;22.60;99.90;;;;;;4920405;29;20784;-70
2021/07/25 03:10:59;;;;;;;11.63;10.43;;;22.50;99.90;;;;;;4919488;29;20465;-70
2021/07/25 03:13:26;;;;;;;12.30;11.10;;;22.50;99.90;;;;;;4919611;29;20498;-70
2021/07/25 03:15:53;;;;;;;12.40;10.60;;;22.50;99.90;;;;;;4919823;29;20525;-70
2021/07/25 03:18:20;;;;;;;12.37;10.67;;;22.50;99.90;;;;;;4919689;29;20465;-70
2021/07/25 03:20:48;;;;;;;11.73;10.53;;;22.40;99.90;;;;;;4919792;29;20469;-70
2021/07/25 03:23:14;;;;;;;11.37;10.23;;;22.40;99.90;;;;;;4919614;29;20461;-70
2021/07/25 03:25:41;;;;;;;16.30;11.10;;;22.40;99.90;;;;;;4919438;29;20466;-70
2021/07/25 03:28:08;;;;;;;13.33;10.83;;;22.40;99.90;;;;;;4919575;29;20552;-70
2021/07/25 03:30:35;;;;;;;14.90;10.97;;;22.40;99.90;;;;;;4919775;29;20789;-70
2021/07/25 03:33:01;;;;;;;12.23;11.03;;;22.40;99.90;;;;;;4920094;29;20493;-69
2021/07/25 03:35:28;;;;;;;12.30;11.03;;;22.30;99.90;;;;;;4919323;29;20469;-70
2021/07/25 03:37:56;;;;;;;12.93;11.63;;;22.40;99.90;;;;;;4919536;29;20930;-69
2021/07/25 03:40:25;;;;;;;12.27;10.97;;;22.30;99.90;;;;;;4920371;29;20461;-70
2021/07/25 03:42:52;;;;;;;12.90;10.83;;;22.30;99.90;;;;;;4919968;29;20946;-69
2021/07/25 03:45:18;;;;;;;13.03;11.63;;;22.30;99.90;;;;;;4919449;29;20555;-70
2021/07/25 03:47:45;;;;;;;11.87;10.73;;;22.30;99.90;;;;;;4920249;29;20461;-70
2021/07/25 03:50:12;;;;;;;12.70;11.40;;;22.30;99.90;;;;;;4919974;29;20841;-70
2021/07/25 03:52:39;;;;;;;14.77;10.80;;;22.30;99.90;;;;;;4920639;29;20469;-70
2021/07/25 03:55:09;;;;;;;12.63;11.27;;;22.30;99.90;;;;;;4919761;29;20485;-70
2021/07/25 03:57:36;;;;;;;13.20;11.37;;;22.30;99.90;;;;;;4920524;29;20465;-70
2021/07/25 04:00:04;;;;;;;13.80;11.30;;;22.30;99.90;;;;;;4920652;29;20461;-70
2021/07/25 04:02:31;;;;;;;12.10;10.90;;;22.30;99.90;;;;;;4919411;29;20476;-69
2021/07/25 04:04:57;;;;;;;12.13;10.93;;;22.30;99.90;;;;;;4919078;29;20485;-70
2021/07/25 04:07:24;;;;;;;12.03;10.93;;;22.30;99.90;;;;;;4919638;29;20472;-70
2021/07/25 04:09:51;;;;;;;12.50;11.20;;;22.40;99.90;;;;;;4921629;29;20777;-70
2021/07/25 04:12:19;;;;;;;12.33;11.23;;;22.40;99.90;;;;;;4919145;29;20505;-70
2021/07/25 04:14:46;;;;;;;17.20;11.53;;;22.40;99.90;;;;;;4918662;29;20469;-70
2021/07/25 04:17:12;;;;;;;12.37;11.07;;;22.40;99.90;;;;;;4919281;29;20471;-69
2021/07/25 04:19:39;;;;;;;12.47;11.17;;;22.40;99.90;;;;;;4918992;29;20521;-70
2021/07/25 04:22:06;;;;;;;12.77;11.00;;;22.40;99.90;;;;;;4919110;29;20465;-70
2021/07/25 04:24:33;;;;;;;12.40;11.10;;;22.40;99.90;;;;;;4919714;29;20493;-70
2021/07/25 04:27:00;;;;;;;12.50;11.20;;;22.40;99.90;;;;;;4919580;29;20461;-70
2021/07/25 04:29:29;;;;;;;17.30;10.97;;;22.40;99.90;;;;;;4919777;29;20461;-70
2021/07/25 04:31:56;;;;;;;12.50;11.17;;;22.40;99.90;;;;;;4923118;29;20472;-71
2021/07/25 04:34:24;;;;;;;16.10;10.70;;;22.40;99.90;;;;;;4922692;29;20919;-70
2021/07/25 04:36:52;;;;;;;12.97;10.47;;;22.40;99.90;;;;;;4922480;29;20947;-70
2021/07/25 04:39:19;;;;;;;13.27;10.97;;;22.40;99.90;;;;;;4924069;29;20457;-70
2021/07/25 04:41:53;;;;;;;11.50;10.33;;;22.50;99.90;;;;;;4924557;29;20469;-70
2021/07/25 04:44:27;;;;;;;12.53;10.50;;;22.50;99.90;;;;;;4924963;29;20473;-70
2021/07/25 04:47:04;;;;;;;13.70;11.17;;;22.50;99.90;;;;;;4925242;29;20448;-70
2021/07/25 04:49:37;;;;;;;13.67;10.60;;;22.50;99.90;;;;;;4924679;29;20520;-70
2021/07/25 04:52:10;;;;;;;14.07;11.60;;;22.60;99.90;;;;;;4924713;29;20460;-70
2021/07/25 04:54:39;;;;;;;13.13;11.00;;;22.60;99.90;;;;;;4924017;29;20445;-70
2021/07/25 04:57:12;;;;;;;12.57;11.27;;;22.60;99.90;;;;;;4924608;29;20457;-70
2021/07/25 04:59:48;;;;;;;16.33;12.17;;;22.70;99.90;;;;;;4923071;29;20890;-69
2021/07/25 05:02:17;;;;;;;12.10;10.90;;;22.70;99.90;;;;;;4922506;29;20444;-70
2021/07/25 05:04:47;;;;;;;13.70;11.73;;;22.70;99.90;;;;;;4922133;29;20532;-70
2021/07/25 05:07:15;;;;;;;16.53;11.20;;;22.70;99.90;;;;;;4922322;29;20488;-70
2021/07/25 05:09:43;;;;;;;12.10;11.00;;;22.70;99.90;;;;;;4922116;29;20473;-70
2021/07/25 05:12:13;;;;;;;12.97;10.50;;;22.80;99.90;;;;;;4921883;29;20501;-70
2021/07/25 05:14:51;;;;;;;13.00;10.90;;;22.80;99.90;;;;;;4921775;29;20449;-69
2021/07/25 05:17:27;;;;;;;11.23;10.10;;;22.80;99.90;;;;;;4921969;29;20481;-69
2021/07/25 05:19:59;;;;;;;12.07;10.90;;;22.80;99.90;;;;;;4922221;29;20445;-69
2021/07/25 05:22:42;;;;;;;12.17;11.00;;;22.90;99.90;;;;;;4923571;29;20575;-69
2021/07/25 05:25:09;;;;;;;13.47;11.43;;;22.90;99.90;;;;;;4922882;29;20812;-69
2021/07/25 05:27:40;;;;;;;12.80;11.50;;;22.90;99.90;;;;;;4923572;29;20981;-69
2021/07/25 05:30:09;;;;;;;12.87;11.67;;;23.00;99.90;;;;;;4922857;29;20461;-69
2021/07/25 05:32:37;;;;;;;13.40;11.23;;;23.00;99.90;;;;;;4923095;29;20465;-69
2021/07/25 05:35:04;;;;;;;12.60;11.33;;;23.00;99.90;;;;;;4924290;29;20788;-69
2021/07/25 05:37:31;;;;;;;13.67;11.47;;;23.10;99.90;;;;;;4922725;29;20461;-69
2021/07/25 05:39:57;;;;;;;13.20;10.80;;;23.10;99.90;;;;;;4921985;29;20795;-69
2021/07/25 05:42:24;;;;;;;12.83;11.57;;;23.10;99.90;;;;;;4922226;29;20496;-70
2021/07/25 05:44:51;;;;;;;12.90;11.53;;;23.20;99.90;;;;;;4922671;29;20496;-70
2021/07/25 05:47:18;;;;;;;13.20;11.83;;;23.20;99.90;;;;;;4922736;29;20477;-70
2021/07/25 05:49:46;;;;;;;13.30;12.00;;;23.30;99.90;;;;;;4921485;29;20923;-70
2021/07/25 05:52:12;;;;;;;15.63;11.50;;;23.30;99.90;;;;;;4921717;29;20477;-70
2021/07/25 05:54:39;;;;;;;14.37;11.83;;;23.30;99.90;;;;;;4921542;29;20458;-70
2021/07/25 05:57:06;;;;;;;12.70;11.40;;;23.40;99.90;;;;;;4921253;29;20465;-70
2021/07/25 05:59:32;;;;;;;12.87;11.50;;;23.50;99.90;;;;;;4921575;29;20457;-70
2021/07/25 06:02:03;;;;;;;14.73;11.37;;;23.50;99.90;;;;;;4921426;29;20925;-70
2021/07/25 06:04:30;;;;;;;14.10;12.13;;;23.50;99.90;;;;;;4921670;29;20473;-70
2021/07/25 06:06:58;;;;;;;13.07;11.67;;;23.60;99.90;;;;;;4921358;29;20585;-70
2021/07/25 06:09:25;;;;;;;17.43;11.90;;;23.60;99.90;;;;;;4920955;29;20464;-69
2021/07/25 06:11:52;;;;;;;14.17;11.40;;;23.70;99.90;;;;;;4921088;29;20567;-70
2021/07/25 06:14:19;;;;;;;13.57;12.33;;;23.80;99.90;;;;;;4920877;29;20465;-70
2021/07/25 06:16:46;;;;;;;12.53;11.10;;;23.90;99.90;;;;;;4921044;29;20465;-70
2021/07/25 06:19:13;;;;;;;12.00;10.80;;;24.00;99.90;;;;;;4920829;29;20461;-70
2021/07/25 06:21:39;;;;;;;12.90;11.50;;;24.20;99.90;;;;;;4921173;29;20466;-69
2021/07/25 06:24:07;;;;;;;12.83;11.40;;;24.30;99.90;;;;;;4920691;29;20461;-69
2021/07/25 06:26:34;;;;;;;12.73;11.37;;;24.40;99.90;;;;;;4921142;29;20475;-69
2021/07/25 06:29:04;;;;;;;14.43;11.20;;;24.50;99.90;;;;;;4921486;29;20457;-69
2021/07/25 06:31:31;;;;;;;12.80;11.70;;;24.70;99.90;;;;;;4921392;29;20918;-69
2021/07/25 06:33:58;;;;;;;13.00;11.80;;;24.80;99.90;;;;;;4924143;29;20470;-70
2021/07/25 06:36:25;;;;;;;12.40;11.20;;;24.80;99.90;;;;;;4922411;29;20457;-69
2021/07/25 06:38:51;;;;;;;12.97;11.67;;;24.90;99.90;;;;;;4921051;29;20461;-69
2021/07/25 06:41:19;;;;;;;13.20;11.87;;;24.90;99.90;;;;;;4920634;29;20461;-69
2021/07/25 06:43:46;;;;;;;12.47;11.27;;;25.00;99.90;;;;;;4920822;29;20480;-69
2021/07/25 06:46:13;;;;;;;12.07;10.83;;;25.00;99.90;;;;;;4920891;29;20485;-69
2021/07/25 06:48:40;;;;;;;12.27;11.07;;;25.00;99.90;;;;;;4921023;29;20480;-69
2021/07/25 06:51:06;;;;;;;13.07;11.83;;;25.00;99.90;;;;;;4920521;29;20866;-69
2021/07/25 06:53:40;;;;;;;12.67;11.47;;;25.00;99.90;;;;;;4920684;29;20473;-69
2021/07/25 06:56:08;;;;;;;12.10;10.80;;;25.00;99.90;;;;;;4920528;29;20454;-70
2021/07/25 06:58:36;;;;;;;16.43;11.37;;;25.10;99.90;;;;;;4920236;29;20561;-69
2021/07/25 07:01:03;;;;;;;18.63;12.27;;;25.10;99.90;;;;;;4919580;29;20465;-69
2021/07/25 07:03:30;;;;;;;12.27;11.07;;;25.10;99.90;;;;;;4920018;29;20472;-69
2021/07/25 07:05:57;;;;;;;14.20;12.10;;;25.20;99.90;;;;;;4920086;29;20473;-69
2021/07/25 07:08:23;;;;;;;16.57;11.80;;;25.20;99.90;;;;;;4920263;29;20461;-70
2021/07/25 07:10:51;;;;;;;12.97;11.67;;;25.30;99.90;;;;;;4919956;29;20487;-70
2021/07/25 07:13:19;;;;;;;16.17;11.27;;;25.30;99.90;;;;;;4919630;29;20682;-70
2021/07/25 07:15:49;;;;;;;15.43;10.70;;;25.30;99.90;;;;;;4919850;29;20610;-68
2021/07/25 07:18:17;;;;;;;12.80;11.50;;;25.40;99.90;;;;;;4919895;29;20464;-69
2021/07/25 07:20:43;;;;;;;12.60;11.27;;;25.40;99.90;;;;;;4920343;29;20783;-69
2021/07/25 07:23:12;;;;;;;14.00;11.20;;;25.40;99.90;;;;;;4919956;29;20465;-70
2021/07/25 07:25:41;;;;;;;13.53;10.53;;;25.50;99.90;;;;;;4920004;29;20496;-70
2021/07/25 07:28:08;;;;;;;12.97;11.70;;;25.50;99.90;;;;;;4919981;29;20798;-69
2021/07/25 07:30:36;;;;;;;12.57;11.37;;;25.60;99.90;;;;;;4919791;29;20466;-70
2021/07/25 07:33:08;;;;;;;11.77;10.67;;;25.60;99.90;;;;;;4920022;29;20464;-69
2021/07/25 07:35:35;;;;;;;11.67;10.60;;;25.70;99.90;;;;;;4919628;29;20457;-69
2021/07/25 07:38:02;;;;;;;10.83;9.90;;;25.80;99.90;;;;;;4919309;29;20493;-69
2021/07/25 07:40:29;;;;;;;12.20;11.00;;;25.80;99.90;;;;;;4919374;29;20461;-69
2021/07/25 07:42:56;;;;;;;12.33;11.23;;;25.90;99.90;;;;;;4919309;29;20472;-71
2021/07/25 07:45:23;;;;;;;11.77;10.03;;;26.00;99.90;;;;;;4918914;29;20490;-70
2021/07/25 07:47:50;;;;;;;11.97;10.80;;;26.20;99.90;;;;;;4919433;29;20465;-71
2021/07/25 07:50:19;;;;;;;12.20;11.10;;;26.30;99.90;;;;;;4919546;29;20473;-71
2021/07/25 07:52:46;;;;;;;12.40;11.20;;;26.30;99.90;;;;;;4919409;29;20857;-71
2021/07/25 07:55:16;;;;;;;12.80;10.50;;;26.40;99.90;;;;;;4919360;29;20792;-71
2021/07/25 07:57:43;;;;;;;11.73;10.50;;;26.40;99.90;;;;;;4919198;29;20472;-70
2021/07/25 08:00:11;;;;;;;11.90;10.80;;;26.40;99.90;;;;;;4919297;29;20472;-71
2021/07/25 08:02:38;;;;;;;12.27;11.07;;;26.50;99.90;;;;;;4919118;29;20473;-71
2021/07/25 08:05:09;;;;;;;11.80;10.80;;;26.50;99.90;;;;;;4918118;29;20481;-70
2021/07/25 08:07:38;;;;;;;11.70;10.60;;;26.50;99.90;;;;;;4919486;29;20461;-71
2021/07/25 08:10:05;;;;;;;12.57;9.97;;;26.50;99.90;;;;;;4919129;29;20489;-72
2021/07/25 08:12:32;;;;;;;11.33;10.33;;;26.50;99.90;;;;;;4918777;29;20493;-71
2021/07/25 08:14:59;;;;;;;11.63;10.63;;;26.50;99.90;;;;;;4919016;29;20760;-73
2021/07/25 08:17:26;;;;;;;11.87;10.33;;;26.60;99.90;;;;;;4919007;29;20566;-70
2021/07/25 08:19:53;;;;;;;13.27;11.80;;;26.60;99.90;;;;;;4918594;29;20941;-71
2021/07/25 08:22:20;;;;;;;12.97;11.17;;;26.70;99.90;;;;;;4918764;29;20465;-70
2021/07/25 08:24:48;;;;;;;12.63;11.10;;;26.70;99.90;;;;;;4919403;29;20476;-72
2021/07/25 08:27:15;;;;;;;11.90;10.80;;;26.80;99.90;;;;;;4920245;29;20472;-70
2021/07/25 08:29:42;;;;;;;11.53;10.53;;;26.80;99.90;;;;;;4919517;29;20819;-73
2021/07/25 08:32:09;;;;;;;13.00;11.70;;;26.90;99.90;;;;;;4918492;29;20454;-71
2021/07/25 08:34:36;;;;;;;11.53;10.43;;;27.00;99.90;;;;;;4918569;29;20918;-69
2021/07/25 08:37:03;;;;;;;13.80;11.87;;;27.10;99.90;;;;;;4918691;29;20458;-70
2021/07/25 08:39:30;;;;;;;14.50;11.43;;;27.20;99.90;;;;;;4918518;29;20473;-71
2021/07/25 08:42:04;;;;;;;12.60;11.43;;;27.20;99.90;;;;;;4918864;29;20466;-71
2021/07/25 08:44:43;;;;;;;13.17;11.87;;;27.30;99.90;;;;;;4918416;29;20917;-71
2021/07/25 08:47:33;;;;;;;12.67;11.33;;;27.40;99.90;;;;;;4918391;29;20489;-72
2021/07/25 08:50:01;;;;;;;14.03;11.60;;;27.50;99.90;;;;;;4919159;29;20476;-72
2021/07/25 08:52:30;;;;;;;12.73;11.03;;;27.60;99.90;;;;;;4918817;29;20477;-73
2021/07/25 08:54:57;;;;;;;13.17;11.53;;;27.70;99.90;;;;;;4918446;29;20931;-70
2021/07/25 08:57:28;;;;;;;11.47;10.37;;;27.80;99.90;;;;;;4919298;29;20926;-70
2021/07/25 08:59:55;;;;;;;13.13;11.90;;;27.80;99.90;;;;;;4918227;29;20457;-70
2021/07/25 09:02:24;;;;;;;12.23;11.17;;;27.90;99.90;;;;;;4918490;29;20774;-70
2021/07/25 09:04:52;;;;;;;10.40;9.50;;;27.90;99.90;;;;;;4918333;29;20469;-70
2021/07/25 09:07:21;;;;;;;11.63;10.53;;;28.00;99.90;;;;;;4918371;29;20483;-70
2021/07/25 09:09:50;;;;;;;12.57;11.00;;;28.10;99.90;;;;;;4919524;29;20476;-71
2021/07/25 09:12:19;;;;;;;13.47;11.23;;;28.20;99.90;;;;;;4918495;29;20489;-70
2021/07/25 09:14:49;;;;;;;13.43;10.90;;;28.20;99.90;;;;;;4918177;29;20464;-70
2021/07/25 09:17:16;;;;;;;10.90;9.80;;;28.30;99.90;;;;;;4922161;29;20453;-70
2021/07/25 09:20:15;;;;;;;12.70;11.20;;;28.40;99.90;;;;;;4921958;29;20461;-70
2021/07/25 09:22:57;;;;;;;12.53;10.60;;;28.50;99.90;;;;;;4921934;29;20457;-70
2021/07/25 09:25:35;;;;;;;11.63;10.53;;;28.60;99.90;;;;;;4921698;29;20481;-70
2021/07/25 09:28:22;;;;;;;12.00;10.90;;;28.70;99.90;;;;;;4921902;29;20460;-70
2021/07/25 09:30:50;;;;;;;11.43;10.43;;;28.80;99.90;;;;;;4921534;29;20449;-70
2021/07/25 09:33:29;;;;;;;11.57;10.50;;;29.00;99.90;;;;;;4921711;29;20952;-69
2021/07/25 09:36:08;;;;;;;11.43;10.53;;;29.10;99.90;;;;;;4921857;29;20446;-69
2021/07/25 09:38:35;;;;;;;10.97;9.43;;;29.10;99.90;;;;;;4921852;29;20899;-69
2021/07/25 09:41:02;;;;;;;11.87;10.80;;;29.20;99.90;;;;;;4922174;29;20557;-70
2021/07/25 09:43:30;;;;;;;11.80;10.67;;;29.30;99.90;;;;;;4921618;29;20787;-70
2021/07/25 09:46:00;;;;;;;12.07;11.07;;;29.40;99.90;;;;;;4920988;29;20977;-71
2021/07/25 09:48:28;;;;;;;11.57;10.53;;;29.40;99.90;;;;;;4921653;29;20465;-70
2021/07/25 09:50:58;;;;;;;11.93;10.73;;;29.40;99.90;;;;;;4921344;29;20941;-71
2021/07/25 09:53:25;;;;;;;11.43;10.33;;;29.40;99.90;;;;;;4921443;29;20520;-69
2021/07/25 09:55:53;;;;;;;12.40;11.23;;;29.50;99.90;;;;;;4921065;29;20464;-69
2021/07/25 09:58:33;;;;;;;12.17;11.10;;;29.60;99.90;;;;;;4921015;29;20465;-70
2021/07/25 10:01:01;;;;;;;11.57;10.43;;;29.70;99.90;;;;;;4921803;29;20489;-70
2021/07/25 10:03:33;;;;;;;13.17;11.50;;;29.70;99.90;;;;;;4920933;29;20462;-70
2021/07/25 10:06:01;;;;;;;11.60;10.40;;;29.70;99.90;;;;;;4921374;29;20485;-70
2021/07/25 10:08:27;;;;;;;12.00;11.00;;;29.80;99.90;;;;;;4921801;29;20469;-70
2021/07/25 10:10:57;;;;;;;11.47;10.07;;;29.90;99.90;;;;;;4921075;29;20461;-70
2021/07/25 10:13:25;;;;;;;11.13;10.13;;;29.90;99.90;;;;;;4920385;29;20489;-70
2021/07/25 10:15:55;;;;;;;11.47;10.37;;;29.90;99.90;;;;;;4920874;29;20526;-70
2021/07/25 10:18:25;;;;;;;12.10;10.87;;;30.00;99.90;;;;;;4921392;29;20572;-70
2021/07/25 10:20:56;;;;;;;11.97;10.77;;;29.90;99.90;;;;;;4920428;29;20486;-70
2021/07/25 10:23:28;;;;;;;10.93;9.83;;;29.80;99.90;;;;;;4920711;29;20774;-70
2021/07/25 10:25:56;;;;;;;10.60;9.70;;;29.70;99.90;;;;;;4920614;29;20484;-70
2021/07/25 10:28:24;;;;;;;11.70;10.70;;;29.70;99.90;;;;;;4920000;29;20512;-69
2021/07/25 10:30:52;;;;;;;11.27;10.17;;;29.80;99.90;;;;;;4920622;29;20476;-70
2021/07/25 10:33:20;;;;;;;12.10;10.90;;;29.90;99.90;;;;;;4920172;29;20461;-70
2021/07/25 10:35:49;;;;;;;14.87;11.50;;;29.90;99.90;;;;;;4920737;29;20543;-70
2021/07/25 10:38:16;;;;;;;12.40;10.87;;;29.90;99.90;;;;;;4920364;29;20481;-70
2021/07/25 10:40:46;;;;;;;11.80;10.60;;;30.00;99.90;;;;;;4919955;29;20938;-70
2021/07/25 10:43:15;;;;;;;11.30;10.17;;;30.00;99.90;;;;;;4920481;29;20468;-70
2021/07/25 10:45:42;;;;;;;10.67;9.60;;;30.10;99.90;;;;;;4920259;29;20465;-70
2021/07/25 10:48:15;;;;;;;11.63;10.53;;;30.20;99.90;;;;;;4920280;29;20469;-70
2021/07/25 10:50:43;;;;;;;11.37;10.17;;;30.30;99.90;;;;;;4920479;29;20845;-71
2021/07/25 10:53:22;;;;;;;13.63;11.33;;;30.50;99.90;;;;;;4920402;29;20489;-70
2021/07/25 10:55:50;;;;;;;12.00;11.00;;;30.70;99.90;;;;;;4920077;29;20481;-70
2021/07/25 10:58:19;;;;;;;11.17;10.17;;;30.80;99.90;;;;;;4919803;29;20492;-70
2021/07/25 11:00:49;;;;;;;10.77;9.87;;;30.90;99.90;;;;;;4919793;29;20471;-70
2021/07/25 11:03:41;;;;;;;11.33;10.30;;;31.10;99.90;;;;;;4919987;29;20471;-70
2021/07/25 11:06:29;;;;;;;13.10;11.50;;;31.30;99.90;;;;;;4919585;29;20497;-70
2021/07/25 11:08:57;;;;;;;10.80;9.90;;;31.40;99.90;;;;;;4916456;29;20926;-69
2021/07/25 11:11:55;;;;;;;10.70;9.67;;;31.50;99.90;;;;;;4919608;29;20473;-70
2021/07/25 11:14:58;;;;;;;11.30;10.20;;;31.60;99.90;;;;;;4919342;29;20469;-70
2021/07/25 11:17:53;;;;;;;12.40;9.70;;;31.80;99.90;;;;;;4880148;29;20542;-70
2021/07/25 11:20:44;;;;;;;11.20;10.27;;;31.90;99.90;;;;;;4873406;29;20467;-69
2021/07/25 11:23:13;;;;;;;11.97;10.90;;;32.00;99.90;;;;;;4912421;29;20469;-70
2021/07/25 11:25:41;;;;;;;11.20;10.13;;;32.20;99.90;;;;;;4919320;29;20472;-69
2021/07/25 11:28:09;;;;;;;12.53;9.60;;;32.40;99.90;;;;;;4919517;29;20521;-71
2021/07/25 11:31:11;;;;;;;11.10;10.10;;;32.60;99.90;;;;;;4919561;29;20533;-70
2021/07/25 11:33:50;;;;;;;14.07;10.37;;;32.60;99.90;;;;;;4919185;29;20461;-70
2021/07/25 11:36:18;;;;;;;13.07;10.90;;;32.50;99.90;;;;;;4919396;29;20497;-68
2021/07/25 11:38:49;;;;;;;12.60;11.57;;;32.40;99.90;;;;;;4919055;29;20461;-70
2021/07/25 11:41:20;;;;;;;12.17;10.97;;;32.50;99.90;;;;;;4919070;29;20446;-70
2021/07/25 11:43:52;;;;;;;11.47;10.57;;;32.70;99.90;;;;;;4919362;29;20455;-70
2021/07/25 11:46:26;;;;;;;11.93;10.90;;;33.10;99.90;;;;;;4919594;29;20481;-70
2021/07/25 11:49:02;;;;;;;12.40;10.70;;;33.60;99.90;;;;;;4918871;29;20790;-69
2021/07/25 11:51:29;;;;;;;11.07;10.00;;;34.40;99.90;;;;;;4918913;29;20452;-69
2021/07/25 11:53:56;;;;;;;10.50;9.50;;;35.20;99.90;;;;;;4919094;29;20465;-70
2021/07/25 11:56:24;;;;;;;10.47;9.57;;;35.80;99.90;;;;;;4919143;29;20561;-70
2021/07/25 11:59:05;;;;;;;10.50;9.60;;;36.20;99.10;;;;;;4919513;29;20948;-70
2021/07/25 12:01:39;;;;;;;10.50;9.70;;;36.70;97.80;;;;;;4918995;29;20456;-70
2021/07/25 12:04:18;;;;;;;10.20;9.40;;;37.20;96.20;;;;;;4918843;29;20441;-70
2021/07/25 12:06:57;;;;;;;9.93;9.20;;;37.70;94.30;;;;;;4918650;29;20481;-69
2021/07/25 12:09:24;;;;;;;9.87;9.07;;;38.30;93.20;;;;;;4918694;29;20457;-71
2021/07/25 12:12:01;;;;;;;10.70;9.70;;;38.70;91.00;;;;;;4918629;29;20657;-70
2021/07/25 12:14:28;;;;;;;11.23;8.70;;;38.80;88.70;;;;;;4918720;29;20528;-70
2021/07/25 12:16:56;;;;;;;10.30;9.50;;;38.60;87.00;;;;;;4918460;29;20457;-70
2021/07/25 12:19:23;;;;;;;10.77;9.60;;;38.60;85.80;;;;;;4918502;29;20465;-70
2021/07/25 12:22:05;;;;;;;10.73;9.83;;;38.30;85.00;;;;;;4918564;29;20941;-70
2021/07/25 12:24:34;;;;;;;10.43;9.50;;;38.20;85.30;;;;;;4919089;29;20748;-70
2021/07/25 12:27:04;;;;;;;9.87;9.07;;;38.40;84.00;;;;;;4918213;29;20500;-70
2021/07/25 12:29:44;;;;;;;11.03;10.03;;;38.80;82.20;;;;;;4918529;29;20466;-70
2021/07/25 12:32:30;;;;;;;9.80;9.00;;;39.30;79.20;;;;;;4918443;29;20461;-70
2021/07/25 12:35:15;;;;;;;11.57;9.27;;;39.30;77.00;;;;;;4918550;29;20449;-70
2021/07/25 12:37:43;;;;;;;10.00;9.10;;;39.50;77.10;;;;;;4918327;29;20457;-70
2021/07/25 12:40:12;;;;;;;11.27;10.33;;;39.50;76.20;;;;;;4918600;29;20918;-70